createdAt,value
2023-01-19T00:02:11.776Z,6.20
2023-01-19T00:04:40.218Z,6.20
2023-01-19T00:07:08.681Z,6.20
2023-01-19T00:09:38.455Z,6.20
2023-01-19T00:12:07.660Z,6.20
2023-01-19T00:14:36.062Z,6.20
2023-01-19T00:17:07.326Z,6.20
2023-01-19T00:19:37.136Z,6.20
2023-01-19T00:22:06.495Z,6.20
2023-01-19T00:24:34.952Z,6.10
2023-01-19T00:27:04.188Z,6.20
2023-01-19T00:29:34.243Z,6.20
2023-01-19T00:32:03.169Z,6.20
2023-01-19T00:34:36.890Z,6.20
2023-01-19T00:37:06.796Z,6.20
2023-01-19T00:39:35.289Z,6.20
2023-01-19T00:42:29.704Z,6.20
2023-01-19T00:44:58.287Z,6.20
2023-01-19T00:47:29.927Z,6.20
2023-01-19T00:49:58.332Z,6.20
2023-01-19T00:52:28.193Z,6.20
2023-01-19T00:54:56.605Z,6.20
2023-01-19T00:57:29.634Z,6.20
2023-01-19T01:00:01.754Z,6.20
2023-01-19T01:02:30.507Z,6.10
2023-01-19T01:05:02.967Z,6.20
2023-01-19T01:07:40.686Z,6.20
2023-01-19T01:10:10.418Z,6.20
2023-01-19T01:12:39.780Z,6.20
2023-01-19T01:15:10.827Z,6.20
2023-01-19T01:17:46.494Z,6.20
2023-01-19T01:20:17.908Z,6.20
2023-01-19T01:22:50.783Z,6.30
2023-01-19T01:25:25.325Z,6.30
2023-01-19T01:27:54.133Z,6.30
2023-01-19T01:30:23.017Z,6.30
2023-01-19T01:32:51.656Z,6.20
2023-01-19T01:35:20.305Z,6.20
2023-01-19T01:37:52.307Z,6.20
2023-01-19T01:40:21.152Z,6.20
2023-01-19T01:42:49.523Z,6.10
2023-01-19T01:45:33.291Z,6.10
2023-01-19T01:48:07.530Z,6.00
2023-01-19T01:50:39.793Z,5.90
2023-01-19T01:53:15.420Z,5.80
2023-01-19T01:55:52.227Z,5.80
2023-01-19T01:58:20.681Z,5.70
2023-01-19T02:01:06.913Z,5.70
2023-01-19T02:03:35.495Z,5.70
2023-01-19T02:06:07.215Z,5.70
2023-01-19T02:08:59.881Z,5.70
2023-01-19T02:11:46.821Z,5.80
2023-01-19T02:14:15.313Z,5.90
2023-01-19T02:16:44.004Z,5.90
2023-01-19T02:19:19.105Z,5.90
2023-01-19T02:21:54.169Z,6.00
2023-01-19T02:24:24.813Z,6.00
2023-01-19T02:26:57.225Z,6.00
2023-01-19T02:29:27.737Z,6.00
2023-01-19T02:31:59.912Z,5.90
2023-01-19T02:34:30.305Z,5.90
2023-01-19T02:37:06.488Z,5.80
2023-01-19T02:39:39.298Z,5.70
2023-01-19T02:42:12.013Z,5.60
2023-01-19T02:44:42.804Z,5.60
2023-01-19T02:47:11.344Z,5.50
2023-01-19T02:49:39.798Z,5.50
2023-01-19T02:52:15.923Z,5.40
2023-01-19T02:55:00.242Z,5.50
2023-01-19T02:57:42.273Z,5.50
2023-01-19T03:00:23.985Z,5.40
2023-01-19T03:03:07.245Z,5.40
2023-01-19T03:05:53.090Z,5.50
2023-01-19T03:08:33.962Z,5.50
2023-01-19T03:11:05.283Z,5.50
2023-01-19T03:13:43.513Z,5.50
2023-01-19T03:16:17.397Z,5.60
2023-01-19T03:18:50.775Z,5.60
2023-01-19T03:21:20.355Z,5.70
2023-01-19T03:23:52.829Z,5.60
2023-01-19T03:26:29.229Z,5.60
2023-01-19T03:29:00.978Z,5.60
2023-01-19T03:31:32.676Z,5.70
2023-01-19T03:34:06.725Z,5.60
2023-01-19T03:36:38.862Z,5.60
2023-01-19T03:39:10.330Z,5.70
2023-01-19T03:41:43.392Z,5.70
2023-01-19T03:44:12.692Z,5.70
2023-01-19T03:46:41.757Z,5.70
2023-01-19T03:49:11.113Z,5.70
2023-01-19T03:51:40.343Z,5.70
2023-01-19T03:54:10.854Z,5.70
2023-01-19T03:56:42.101Z,5.80
2023-01-19T03:59:10.520Z,5.80
2023-01-19T04:01:39.152Z,5.90
2023-01-19T04:04:07.689Z,5.80
2023-01-19T04:06:36.594Z,5.80
2023-01-19T04:09:05.059Z,5.80
2023-01-19T04:11:33.529Z,5.70
2023-01-19T04:14:03.568Z,5.70
2023-01-19T04:16:31.940Z,5.80
2023-01-19T04:19:00.331Z,5.80
2023-01-19T04:21:28.788Z,5.90
2023-01-19T04:23:57.201Z,5.90
2023-01-19T04:26:25.603Z,5.90
2023-01-19T04:28:53.979Z,5.90
2023-01-19T04:31:24.327Z,5.90
2023-01-19T04:33:52.811Z,5.90
2023-01-19T04:36:24.097Z,5.90
2023-01-19T04:38:52.481Z,5.90
2023-01-19T04:41:21.318Z,5.90
2023-01-19T04:43:49.772Z,5.90
2023-01-19T04:46:18.252Z,5.90
2023-01-19T04:48:48.093Z,5.90
2023-01-19T04:51:16.557Z,5.80
2023-01-19T04:53:45.570Z,5.80
2023-01-19T04:56:14.108Z,5.80
2023-01-19T04:58:42.589Z,5.70
2023-01-19T05:01:11.173Z,5.70
2023-01-19T05:03:40.279Z,5.60
2023-01-19T05:06:10.269Z,5.50
2023-01-19T05:08:38.793Z,5.50
2023-01-19T05:11:07.236Z,5.40
2023-01-19T05:13:36.441Z,5.40
2023-01-19T05:16:06.311Z,5.40
2023-01-19T05:18:36.971Z,5.50
2023-01-19T05:21:08.339Z,5.50
2023-01-19T05:23:38.211Z,5.60
2023-01-19T05:26:07.985Z,5.70
2023-01-19T05:28:38.038Z,5.70
2023-01-19T05:31:06.719Z,5.80
2023-01-19T05:33:35.241Z,5.80
2023-01-19T05:36:04.435Z,5.80
2023-01-19T05:38:36.262Z,5.80
2023-01-19T05:41:06.426Z,5.80
2023-01-19T05:43:34.945Z,5.80
2023-01-19T05:46:05.085Z,5.70
2023-01-19T05:48:36.226Z,5.60
2023-01-19T05:51:05.087Z,5.50
2023-01-19T05:53:33.801Z,5.50
2023-01-19T05:56:04.139Z,5.50
2023-01-19T05:58:35.397Z,5.50
2023-01-19T06:01:05.794Z,5.50
2023-01-19T06:03:35.028Z,5.60
2023-01-19T06:06:04.696Z,5.60
2023-01-19T06:08:33.717Z,5.60
2023-01-19T06:11:02.240Z,5.60
2023-01-19T06:13:30.706Z,5.60
2023-01-19T06:16:02.398Z,5.60
2023-01-19T06:18:31.281Z,5.50
2023-01-19T06:21:01.862Z,5.50
2023-01-19T06:23:34.736Z,5.50
2023-01-19T06:26:03.482Z,5.50
2023-01-19T06:28:32.216Z,5.50
2023-01-19T06:31:02.408Z,5.50
2023-01-19T06:33:31.639Z,5.40
2023-01-19T06:36:00.112Z,5.40
2023-01-19T06:38:29.558Z,5.40
2023-01-19T06:40:59.696Z,5.30
2023-01-19T06:43:28.388Z,5.30
2023-01-19T06:46:00.490Z,5.30
2023-01-19T06:48:31.249Z,5.30
2023-01-19T06:51:00.035Z,5.30
2023-01-19T06:53:30.212Z,5.40
2023-01-19T06:56:03.247Z,5.40
2023-01-19T06:58:34.842Z,5.40
2023-01-19T07:01:03.766Z,5.40
2023-01-19T07:03:34.851Z,5.40
2023-01-19T07:06:06.609Z,5.50
2023-01-19T07:08:35.216Z,5.50
2023-01-19T07:11:26.479Z,5.50
2023-01-19T07:13:56.232Z,5.50
2023-01-19T07:16:24.850Z,5.60
2023-01-19T07:18:56.506Z,5.50
2023-01-19T07:21:25.103Z,5.50
2023-01-19T07:23:55.037Z,5.60
2023-01-19T07:26:25.336Z,5.70
2023-01-19T07:28:54.259Z,5.70
2023-01-19T07:31:22.906Z,5.80
2023-01-19T07:33:51.459Z,5.80
2023-01-19T07:36:21.623Z,5.80
2023-01-19T07:38:50.251Z,5.90
2023-01-19T07:41:18.806Z,6.00
2023-01-19T07:43:47.380Z,6.00
2023-01-19T07:46:15.831Z,6.00
2023-01-19T07:48:46.587Z,6.00
2023-01-19T07:51:18.123Z,6.00
2023-01-19T07:53:50.911Z,6.10
2023-01-19T07:56:19.373Z,6.10
2023-01-19T07:58:49.916Z,6.10
2023-01-19T08:01:18.501Z,6.10
2023-01-19T08:03:48.961Z,6.10
2023-01-19T08:06:22.349Z,6.10
2023-01-19T08:08:52.306Z,6.10
2023-01-19T08:11:23.248Z,6.10
2023-01-19T08:13:51.818Z,6.10
2023-01-19T08:16:38.765Z,6.10
2023-01-19T08:19:07.528Z,6.20
2023-01-19T08:21:41.274Z,6.30
2023-01-19T08:24:19.736Z,6.30
2023-01-19T08:26:48.413Z,6.20
2023-01-19T08:29:17.099Z,6.20
2023-01-19T08:31:45.869Z,6.10
2023-01-19T08:34:14.486Z,6.20
2023-01-19T08:36:42.901Z,6.20
2023-01-19T08:39:13.353Z,6.20
2023-01-19T08:41:41.851Z,6.20
2023-01-19T08:44:11.175Z,6.20
2023-01-19T08:46:39.619Z,6.20
2023-01-19T08:49:08.769Z,6.20
2023-01-19T08:51:40.256Z,6.20
2023-01-19T08:54:08.761Z,6.20
2023-01-19T08:56:38.598Z,6.20
2023-01-19T08:59:10.850Z,6.20
2023-01-19T09:01:41.537Z,6.10
2023-01-19T09:04:11.149Z,6.10
2023-01-19T09:06:39.604Z,6.10
2023-01-19T09:09:08.147Z,6.00
2023-01-19T09:11:38.105Z,6.00
2023-01-19T09:14:06.925Z,6.00
2023-01-19T09:16:35.710Z,6.00
2023-01-19T09:19:04.355Z,5.90
2023-01-19T09:21:32.884Z,5.90
2023-01-19T09:24:22.572Z,5.90
2023-01-19T09:26:52.618Z,5.90
2023-01-19T09:29:22.824Z,5.90
2023-01-19T09:31:51.511Z,5.80
2023-01-19T09:34:20.674Z,5.90
2023-01-19T09:36:49.241Z,5.80
2023-01-19T09:39:18.602Z,5.80
2023-01-19T09:41:53.663Z,5.80
2023-01-19T09:44:29.953Z,5.70
2023-01-19T09:46:58.655Z,5.70
2023-01-19T09:49:40.554Z,5.70
2023-01-19T09:52:12.051Z,5.70
2023-01-19T09:54:47.910Z,5.90
2023-01-19T09:57:17.641Z,5.90
2023-01-19T09:59:51.616Z,6.00
2023-01-19T10:02:29.065Z,6.10
2023-01-19T10:05:02.540Z,6.30
2023-01-19T10:07:55.284Z,6.40
2023-01-19T10:10:26.170Z,6.40
2023-01-19T10:13:05.141Z,6.30
2023-01-19T10:15:48.031Z,6.30
2023-01-19T10:18:21.103Z,6.30
2023-01-19T10:20:55.353Z,6.20
2023-01-19T10:23:36.005Z,6.20
2023-01-19T10:26:10.121Z,6.20
2023-01-19T10:28:39.925Z,6.20
2023-01-19T10:31:10.270Z,6.20
2023-01-19T10:33:40.168Z,6.20
2023-01-19T10:36:18.551Z,6.20
2023-01-19T10:38:49.017Z,6.20
2023-01-19T10:41:24.136Z,6.30
2023-01-19T10:44:01.326Z,6.30
2023-01-19T10:46:38.139Z,6.30
2023-01-19T10:49:07.757Z,6.30
2023-01-19T10:51:48.205Z,6.40
2023-01-19T10:54:16.974Z,6.40
2023-01-19T10:56:55.841Z,6.40
2023-01-19T10:59:36.796Z,6.40
2023-01-19T11:02:18.772Z,6.50
2023-01-19T11:04:50.172Z,6.60
2023-01-19T11:07:22.112Z,6.70
2023-01-19T11:09:51.004Z,6.80
2023-01-19T11:12:22.136Z,6.80
2023-01-19T11:14:52.421Z,6.80
2023-01-19T11:17:25.720Z,6.70
2023-01-19T11:20:00.554Z,6.70
2023-01-19T11:22:31.465Z,6.60
2023-01-19T11:25:02.054Z,6.60
2023-01-19T11:27:33.535Z,6.70
2023-01-19T11:30:09.856Z,6.50
2023-01-19T11:32:39.774Z,6.60
2023-01-19T11:35:34.723Z,6.50
2023-01-19T11:38:18.126Z,6.50
2023-01-19T11:40:54.147Z,6.50
2023-01-19T11:43:24.358Z,6.40
2023-01-19T11:45:53.496Z,6.30
2023-01-19T11:48:30.408Z,6.30
2023-01-19T11:51:03.569Z,6.20
2023-01-19T11:53:35.305Z,6.10
2023-01-19T11:56:08.385Z,6.10
2023-01-19T11:58:40.232Z,6.10
2023-01-19T12:01:15.620Z,6.10
2023-01-19T12:03:50.243Z,6.00
2023-01-19T12:06:22.821Z,6.00
2023-01-19T12:08:56.695Z,5.90
2023-01-19T12:11:31.717Z,5.90
2023-01-19T12:14:01.814Z,5.80
2023-01-19T12:16:32.837Z,5.80
2023-01-19T12:19:07.619Z,5.70
2023-01-19T12:21:36.087Z,5.80
2023-01-19T12:24:17.287Z,5.80
2023-01-19T12:26:52.440Z,5.90
2023-01-19T12:29:26.901Z,6.00
2023-01-19T12:32:20.089Z,6.10
2023-01-19T12:34:52.215Z,6.10
2023-01-19T12:37:50.865Z,6.10
2023-01-19T12:40:27.227Z,6.10
2023-01-19T12:43:02.051Z,6.10
2023-01-19T12:45:34.832Z,6.20
2023-01-19T12:48:04.953Z,6.30
2023-01-19T12:50:38.523Z,6.40
2023-01-19T12:53:17.294Z,6.60
2023-01-19T12:55:47.595Z,6.90
2023-01-19T12:58:18.875Z,7.10
2023-01-19T13:00:49.583Z,7.20
2023-01-19T13:03:47.671Z,7.20
2023-01-19T13:06:17.696Z,7.20
2023-01-19T13:09:02.611Z,7.10
2023-01-19T13:11:34.761Z,7.10
2023-01-19T13:14:37.992Z,7.00
2023-01-19T13:17:26.940Z,6.80
2023-01-19T13:20:24.059Z,6.80
2023-01-19T13:23:19.181Z,6.80
2023-01-19T13:26:06.957Z,6.80
2023-01-19T13:28:42.764Z,6.90
2023-01-19T13:31:12.030Z,6.80
2023-01-19T13:33:48.713Z,6.80
2023-01-19T13:36:22.698Z,6.70
2023-01-19T13:38:53.658Z,6.60
2023-01-19T13:41:27.906Z,6.60
2023-01-19T13:44:02.581Z,6.60
2023-01-19T13:46:33.605Z,6.60
2023-01-19T13:49:05.718Z,6.40
2023-01-19T13:51:34.193Z,6.30
2023-01-19T13:54:05.752Z,6.30
2023-01-19T13:56:37.043Z,6.20
2023-01-19T13:59:12.696Z,6.10
2023-01-19T14:01:43.036Z,6.00
2023-01-19T14:04:28.546Z,6.00
2023-01-19T14:06:59.899Z,5.90
2023-01-19T14:09:29.966Z,5.90
2023-01-19T14:12:15.651Z,5.90
2023-01-19T14:14:45.236Z,6.00
2023-01-19T14:17:23.519Z,6.00
2023-01-19T14:19:53.801Z,6.00
2023-01-19T14:22:22.845Z,6.00
2023-01-19T14:24:52.778Z,6.00
2023-01-19T14:27:24.495Z,6.00
2023-01-19T14:29:54.986Z,5.90
2023-01-19T14:32:25.333Z,5.90
2023-01-19T14:35:15.783Z,5.90
2023-01-19T14:37:49.304Z,5.80
2023-01-19T14:40:24.573Z,5.90
2023-01-19T14:42:55.103Z,5.90
2023-01-19T14:45:26.132Z,5.90
2023-01-19T14:47:58.289Z,5.80
2023-01-19T14:50:30.017Z,5.80
2023-01-19T14:53:04.652Z,5.80
2023-01-19T14:55:40.909Z,5.70
2023-01-19T14:58:13.178Z,5.70
2023-01-19T15:00:42.096Z,5.70
2023-01-19T15:03:13.488Z,5.70
2023-01-19T15:05:45.064Z,5.80
2023-01-19T15:08:17.693Z,5.80
2023-01-19T15:10:47.836Z,5.80
2023-01-19T15:13:19.676Z,5.80
2023-01-19T15:15:49.872Z,5.80
2023-01-19T15:18:23.461Z,5.70
2023-01-19T15:20:51.950Z,5.70
2023-01-19T15:23:20.512Z,5.70
2023-01-19T15:25:51.573Z,5.70
2023-01-19T15:28:21.268Z,5.60
2023-01-19T15:30:49.790Z,5.60
2023-01-19T15:33:20.646Z,5.60
2023-01-19T15:35:49.199Z,5.60
2023-01-19T15:38:17.750Z,5.60
2023-01-19T15:40:51.196Z,5.60
2023-01-19T15:43:22.185Z,5.60
2023-01-19T15:46:03.082Z,5.60
2023-01-19T15:48:33.609Z,5.60
2023-01-19T15:51:02.258Z,5.60
2023-01-19T15:53:30.806Z,5.50
2023-01-19T15:55:59.372Z,5.50
2023-01-19T15:58:29.251Z,5.50
2023-01-19T16:00:59.601Z,5.40
2023-01-19T16:03:28.346Z,5.40
2023-01-19T16:05:58.013Z,5.40
2023-01-19T16:08:29.575Z,5.30
2023-01-19T16:10:58.113Z,5.30
2023-01-19T16:13:30.506Z,5.20
2023-01-19T16:16:03.377Z,5.20
2023-01-19T16:18:34.724Z,5.20
2023-01-19T16:21:03.238Z,5.10
2023-01-19T16:23:31.929Z,5.10
2023-01-19T16:26:04.919Z,5.00
2023-01-19T16:28:35.749Z,4.90
2023-01-19T16:31:04.917Z,4.90
2023-01-19T16:33:33.490Z,4.80
2023-01-19T16:36:19.274Z,4.80
2023-01-19T16:38:48.001Z,4.80
2023-01-19T16:41:16.505Z,4.70
2023-01-19T16:43:51.158Z,4.70
2023-01-19T16:46:23.578Z,4.50
2023-01-19T16:48:52.892Z,4.40
2023-01-19T16:51:24.082Z,4.30
2023-01-19T16:53:52.694Z,4.20
2023-01-19T16:56:21.255Z,4.00
2023-01-19T16:58:54.650Z,3.90
2023-01-19T17:01:29.764Z,3.90
2023-01-19T17:03:58.367Z,3.80
2023-01-19T17:06:27.159Z,3.70
2023-01-19T17:08:55.648Z,3.70
2023-01-19T17:11:26.418Z,3.60
2023-01-19T17:13:57.776Z,3.50
2023-01-19T17:16:27.733Z,3.50
2023-01-19T17:18:58.496Z,3.60
2023-01-19T17:21:27.647Z,3.50
2023-01-19T17:23:57.393Z,3.50
2023-01-19T17:26:28.446Z,3.40
2023-01-19T17:29:01.069Z,3.40
2023-01-19T17:31:32.174Z,3.50
2023-01-19T17:34:01.154Z,3.40
2023-01-19T17:36:31.395Z,3.40
2023-01-19T17:39:01.571Z,3.40
2023-01-19T17:41:31.702Z,3.50
2023-01-19T17:44:02.664Z,3.50
2023-01-19T17:46:32.043Z,3.40
2023-01-19T17:49:02.141Z,3.50
2023-01-19T17:51:31.422Z,3.40
2023-01-19T17:54:00.678Z,3.40
2023-01-19T17:56:33.094Z,3.40
2023-01-19T17:59:03.444Z,3.40
2023-01-19T18:01:38.283Z,3.40
2023-01-19T18:04:07.792Z,3.40
2023-01-19T18:06:36.802Z,3.30
2023-01-19T18:09:06.950Z,3.30
2023-01-19T18:11:35.887Z,3.30
2023-01-19T18:14:06.765Z,3.40
2023-01-19T18:16:38.119Z,3.30
2023-01-19T18:19:06.649Z,3.30
2023-01-19T18:21:38.173Z,3.30
2023-01-19T18:24:07.427Z,3.30
2023-01-19T18:26:37.663Z,3.30
2023-01-19T18:29:07.415Z,3.20
2023-01-19T18:31:35.988Z,3.20
2023-01-19T18:34:04.905Z,3.20
2023-01-19T18:36:34.383Z,3.20
2023-01-19T18:39:03.109Z,3.20
2023-01-19T18:41:31.686Z,3.20
2023-01-19T18:44:00.760Z,3.20
2023-01-19T18:46:30.772Z,3.30
2023-01-19T18:48:59.304Z,3.20
2023-01-19T18:51:28.939Z,3.20
2023-01-19T18:53:59.563Z,3.20
2023-01-19T18:56:28.316Z,3.20
2023-01-19T18:58:57.297Z,3.20
2023-01-19T19:01:31.541Z,3.20
2023-01-19T19:04:02.485Z,3.20
2023-01-19T19:06:31.230Z,3.20
2023-01-19T19:09:00.287Z,3.10
2023-01-19T19:11:29.363Z,3.10
2023-01-19T19:14:01.757Z,3.10
2023-01-19T19:16:34.729Z,3.10
2023-01-19T19:19:05.460Z,3.10
2023-01-19T19:21:34.125Z,3.10
2023-01-19T19:24:02.612Z,3.10
2023-01-19T19:26:31.365Z,3.10
2023-01-19T19:29:00.979Z,3.10
2023-01-19T19:31:30.338Z,3.10
2023-01-19T19:33:59.974Z,3.00
2023-01-19T19:36:30.399Z,3.00
2023-01-19T19:39:00.492Z,3.10
2023-01-19T19:41:30.914Z,3.10
2023-01-19T19:44:00.173Z,3.10
2023-01-19T19:46:28.800Z,3.10
2023-01-19T19:48:57.365Z,3.20
2023-01-19T19:51:29.458Z,3.20
2023-01-19T19:54:00.652Z,3.10
2023-01-19T19:56:31.083Z,3.20
2023-01-19T19:59:00.881Z,3.20
2023-01-19T20:01:33.563Z,3.10
2023-01-19T20:04:06.758Z,3.10
2023-01-19T20:06:38.863Z,3.10
2023-01-19T20:09:12.741Z,3.10
2023-01-19T20:11:42.012Z,3.10
2023-01-19T20:14:12.088Z,3.10
2023-01-19T20:16:41.095Z,3.20
2023-01-19T20:19:10.661Z,3.20
2023-01-19T20:21:43.523Z,3.10
2023-01-19T20:24:15.924Z,3.10
2023-01-19T20:26:47.214Z,3.10
2023-01-19T20:29:16.283Z,3.10
2023-01-19T20:31:50.247Z,3.10
2023-01-19T20:34:21.913Z,3.10
2023-01-19T20:36:53.242Z,3.20
2023-01-19T20:39:24.826Z,3.20
2023-01-19T20:41:53.527Z,3.20
2023-01-19T20:44:24.488Z,3.20
2023-01-19T20:46:53.994Z,3.20
2023-01-19T20:49:23.318Z,3.20
2023-01-19T20:51:52.147Z,3.30
2023-01-19T20:54:24.558Z,3.20
2023-01-19T20:56:54.619Z,3.20
2023-01-19T20:59:23.569Z,3.30
2023-01-19T21:01:52.322Z,3.30
2023-01-19T21:04:21.126Z,3.30
2023-01-19T21:06:52.698Z,3.30
2023-01-19T21:09:23.367Z,3.30
2023-01-19T21:11:56.532Z,3.20
2023-01-19T21:14:25.914Z,3.30
2023-01-19T21:16:56.539Z,3.30
2023-01-19T21:19:25.125Z,3.20
2023-01-19T21:21:55.246Z,3.20
2023-01-19T21:24:23.772Z,3.20
2023-01-19T21:26:54.111Z,3.20
2023-01-19T21:29:22.727Z,3.20
2023-01-19T21:31:51.175Z,3.20
2023-01-19T21:34:19.732Z,3.20
2023-01-19T21:36:48.230Z,3.20
2023-01-19T21:39:17.529Z,3.20
2023-01-19T21:41:46.200Z,3.20
2023-01-19T21:44:16.622Z,3.20
2023-01-19T21:46:46.711Z,3.20
2023-01-19T21:49:18.811Z,3.10
2023-01-19T21:51:49.188Z,3.10
2023-01-19T21:54:18.080Z,3.20
2023-01-19T21:56:46.533Z,3.20
2023-01-19T21:59:18.516Z,3.20
2023-01-19T22:01:48.441Z,3.20
2023-01-19T22:04:16.992Z,3.20
2023-01-19T22:06:45.408Z,3.10
2023-01-19T22:09:15.087Z,3.20
2023-01-19T22:11:43.725Z,3.20
2023-01-19T22:14:12.215Z,3.20
2023-01-19T22:16:42.262Z,3.20
2023-01-19T22:19:14.563Z,3.20
2023-01-19T22:21:44.471Z,3.20
2023-01-19T22:24:13.248Z,3.20
2023-01-19T22:26:42.012Z,3.20
2023-01-19T22:29:12.077Z,3.20
2023-01-19T22:31:43.294Z,3.20
2023-01-19T22:34:15.951Z,3.20
2023-01-19T22:36:45.044Z,3.20
2023-01-19T22:39:14.616Z,3.20
2023-01-19T22:41:45.386Z,3.20
2023-01-19T22:44:15.994Z,3.20
2023-01-19T22:46:46.196Z,3.20
2023-01-19T22:49:16.384Z,3.20
2023-01-19T22:51:45.913Z,3.20
2023-01-19T22:54:15.152Z,3.20
2023-01-19T22:56:44.207Z,3.20
2023-01-19T22:59:12.938Z,3.20
2023-01-19T23:01:43.437Z,3.20
2023-01-19T23:04:16.159Z,3.20
2023-01-19T23:06:49.306Z,3.20
2023-01-19T23:09:18.503Z,3.20
2023-01-19T23:11:51.290Z,3.20
2023-01-19T23:14:21.564Z,3.20
2023-01-19T23:16:50.277Z,3.20
2023-01-19T23:19:20.582Z,3.20
2023-01-19T23:21:52.121Z,3.20
2023-01-19T23:24:20.715Z,3.20
2023-01-19T23:26:50.436Z,3.30
2023-01-19T23:29:21.196Z,3.20
2023-01-19T23:31:53.464Z,3.30
2023-01-19T23:34:23.418Z,3.30
2023-01-19T23:36:52.058Z,3.30
2023-01-19T23:39:22.383Z,3.30
2023-01-19T23:41:51.384Z,3.30
2023-01-19T23:44:19.999Z,3.30
2023-01-19T23:46:48.564Z,3.40
2023-01-19T23:49:18.133Z,3.40
2023-01-19T23:51:47.997Z,3.40
2023-01-19T23:54:16.424Z,3.40
2023-01-19T23:56:45.132Z,3.40
2023-01-19T23:59:18.804Z,3.40
